Hector Alvarez

Scout - Guadalajara
4 Jun 2028
Sonntag
Verarbeitung

Persönlichkeit

Anpassungsfähigkeit (18) Ehrgeiz (10) Kontroverse (10) Loyalität (8) Druck (1) Professionalität (11) Fairness (1) Temperament (12)

Profil

Trainerstil Demokratisch
Lizenz Kontinentale A
Entschlossenheit 11
Menschenführung 15
Motivation 9
Disziplin 9
Arbeitszufriedenheit
100%
Ermüdung
0%
Rolle Scout
Gehalt 63.2K p/W
Vertrag 14.03.2030

Leistung

Verhalten Gut
Trainingseffektivität
39%
Spielerentwicklung
55%
Verletzungsprävention
45%
Taktische Umsetzung
35%

Letzte Ereignisse

Spieler begutachtet jetzt

Aktuell beobachtet

44
Spieler Verein Status Fähigkeit Vertrauen Beobachtet Zuletzt beobachtet Letzte Stimme
Ezequiel Bullaude Santos Laguna Verloren 132 / 125 69% 1 01.06.2028 -
Sinclair Armstrong Notts County Aktiv 118 / 123 40% 1 01.06.2028 -
Aidomo Emakhu Oxford United Aktiv 127 / 123 40% 1 01.06.2028 -
Tammer Kumar West Bromwich Albion Aktiv 134 / 125 40% 1 01.06.2028 -
Francisco Triver River Plate Aktiv 86 / 100 40% 1 27.01.2028 -
Kauã Moraes Cruzeiro Aktiv 135 / 132 40% 1 27.01.2028 -
Jan Virgili Club Brugge Aktiv 129 / 133 40% 2 26.01.2028 -
Pedro Zenit Aktiv 134 / 141 40% 1 26.01.2028 -
Luka Andrade Montevideo City Torque Aktiv 96 / 109 40% 1 26.01.2028 -
Sidiki Chérif Coventry City Aktiv 138 / 134 40% 2 25.01.2028 -
Gabriel Lopes Santiago Wanderers Aktiv 97 / 98 40% 3 25.01.2028 -
Henrique Carmo CSKA Moscow Aktiv 137 / 128 40% 1 25.01.2028 -
Dilan Godoy Vélez Aktiv 113 / 120 40% 1 17.01.2028 -
Aarón Ochoa Málaga Aktiv 121 / 131 40% 1 17.01.2028 -
Chupete Málaga Aktiv 124 / 131 40% 1 02.01.2028 -
Javier Mena Deportivo Pereira Aktiv 105 / 103 40% 1 31.08.2027 -
Maren Kefas Plateau United Aktiv 89 / 98 40% 1 31.08.2027 -
Felipe Serrés Wanderers Aktiv 91 / 100 40% 1 24.08.2027 -
Santos Torrealba Caracas Aktiv 91 / 97 40% 1 24.08.2027 -
Facundo Balatti Penarol Aktiv 96 / 108 40% 1 17.08.2027 -
Jorge Salinas Racing Santander Aktiv 132 / 140 40% 3 12.08.2027 -
Lander Astiazarán Real Sociedad Aktiv 102 / 124 40% 2 12.08.2027 -
Teo Rodríguez Pagano San Lorenzo Aktiv 124 / 119 40% 1 12.08.2027 -
Calum Agius Crewe Alexandra Aktiv 110 / 100 40% 3 09.08.2027 -
Yusi Alavés Aktiv 143 / 144 40% 3 09.08.2027 -
Joel Canchimbo Barranquilla Aktiv 113 / 112 40% 3 05.08.2027 -
Wilfred Correa Caracas Aktiv 101 / 96 40% 1 05.08.2027 -
Riley Owen Bristol Rovers Aktiv 95 / 109 40% 3 04.08.2027 -
Ryan Oné Sheffield United Aktiv 107 / 118 40% 1 26.07.2027 -
Gianluca Prestianni Benfica Aktiv 132 / 138 40% 1 26.07.2027 -
Gorka Gorosabel Real Sociedad Aktiv 121 / 113 40% 3 25.07.2027 -
Othmane Maamma Watford Aktiv 117 / 127 40% 1 22.07.2027 -
Ollie Scarles West Ham United Aktiv 136 / 140 40% 1 22.07.2027 -
Rodrigo Mora AS Roma Aktiv 137 / 151 40% 1 20.07.2027 -
Joseph Opoku Swansea City Aktiv 116 / 119 40% 1 18.07.2027 -
Sheldon Dinesh Stockport County Aktiv 101 / 106 40% 1 17.07.2027 -
Oumar Camara Vitoria Guimaraes Aktiv 131 / 133 40% 2 16.07.2027 -
Jonathan Asp-Jensen Deportivo La Coruña Aktiv 128 / 128 40% 1 15.07.2027 -
Samir El Mourabet RC Strasbourg Aktiv 134 / 133 40% 1 15.07.2027 -
Mfundo Vilakazi Kaizer Chiefs Aktiv 121 / 117 40% 1 14.07.2027 -
Jay Robinson Southampton Aktiv 118 / 131 40% 1 14.07.2027 -
Harrison Bettoni Wigan Athletic Aktiv 100 / 112 40% 1 12.07.2027 -
Leighton Clarkson Blackpool Aktiv 129 / 125 40% 1 21.06.2027 -
Bongani Kekana SuperSport United Aktiv 126 / 134 40% 1 01.06.2027 -